Lizella, Georgia
Current Conditions -  °F | °C
As of 6:53 AM on Monday 26 Jan 2015 (Local Time) from KMCN Reporting Station
Broken Clouds Broken Clouds  
Wind Chill:   Ceiling: 3500
Heat Index:   Visibility: 10mi
Dew Point:   Wind: 9mph
Humidity: 89%   Direction: 270°W
Pressure: 29.79"   Gusts: NA
Location:  32.81°N, 83.82°W
Report Text: KMCN 261153Z AUTO 27008KT 10SM BKN035 06/04 A2979 RMK AO2 SLP086 T00610044 10094 20056 53008 TSNO
Loading
Personal Weather Stations






























Interactive Weather Map New forecast layout! Learn more

10-Day Weather Forecast

Advertisements
Track Severe Weather on mobile